Aviation Digital Data Service (ADDS)

Output produced by METARs form (0514 UTC 24 September 2018)
found at http://www.aviationweather.gov/metar/data/
 
KMEI 240458Z AUTO 18003KT 10SM CLR 25/22 A2998 RMK AO2 SLP147 T02500217
KMEI 240358Z AUTO 18004KT 10SM CLR 26/22 A2998 RMK AO2 SLP147 T02560217
KMEI 240258Z 17003KT 10SM CLR 26/21 A2998 RMK AO2 SLP147 T02610211 51015
KMEI 240158Z 20004KT 10SM FEW042 FEW055 26/22 A2997 RMK AO2 SLP144 T02560222
KMEI 240058Z 00000KT 10SM FEW070 28/22 A2995 RMK AO2 SLP137 T02780222
KMEI 232358Z 12003KT 10SM CLR 29/22 A2994 RMK AO2 SLP133 T02890217 10333 20289 53007
KMEI 232258Z 12005KT 10SM CLR 31/20 A2992 RMK AO2 SLP129 T03060200
KMEI 232158Z 16008KT 10SM CLR 32/19 A2991 RMK AO2 SLP123 T03220194
KMEI 232058Z 14009KT 10SM SCT049 33/19 A2991 RMK AO2 SLP124 T03280194 56026
KMEI 231958Z 16008KT 10SM CLR 32/21 A2993 RMK AO2 SLP130 T03220206
KMEI 231858Z 15008KT 10SM SCT042 BKN070 32/21 A2996 RMK AO2 SLP142 T03170211
KMEI 231758Z 19008KT 10SM SCT042 32/21 A2999 RMK AO2 SLP151 T03220206 10322 20217 58010
KMEI 231658Z COR 14004KT 10SM FEW032 FEW045 31/22 A3001 RMK AO2 SLP157 T03110217
KMEI 231558Z 18004KT 10SM FEW027 FEW036 30/22 A3002 RMK AO2 SLP162 T03000217
KMEI 231458Z 17007KT 10SM CLR 29/22 A3002 RMK AO2 SLP162 T02890222 51008
KMEI 231358Z 23003KT 10SM CLR 27/23 A3001 RMK AO2 SLP159 T02670228
KMEI 231258Z 00000KT 10SM CLR 24/21 A3001 RMK AO2 SLP159 T02390211
KMEI 231213Z 00000KT 6SM R01/1600V2400FT BR CLR 22/21 A3000 RMK AO2 T02170206
KMEI 231158Z 00000KT 4SM R01/1200V1400FT BR CLR 22/20 A3000 RMK AO2 SLP154 70003 T02170200 10244 20217 51009
KMEI 231154Z 00000KT 4SM R01/1200V1400FT BR CLR 22/21 A3000 RMK AO2
KMEI 231058Z 00000KT 9SM R01/2400V5000FT CLR 22/21 A2998 RMK AO2 SLP149 T02220206
KMEI 230958Z AUTO 00000KT 6SM R01/2400VP6000FT BR CLR 22/21 A2997 RMK AO2 SLP145 T02220211
KMEI 230858Z AUTO 00000KT 4SM R01/5500VP6000FT BR CLR 23/21 A2997 RMK AO2 SLP145 T02280211 56006
KMEI 230758Z AUTO 00000KT 8SM R01/6000VP6000FT CLR 23/22 A2997 RMK AO2 SLP144 T02330217
KMEI 230658Z AUTO 00000KT 8SM CLR 24/22 A2998 RMK AO2 SLP147 T02440222
KMEI 230558Z AUTO 00000KT 9SM CLR 24/22 A2999 RMK AO2 SLP150 60002 T02390222 10272 20239 403330228 56008
KMEI 230458Z AUTO 00000KT 10SM CLR 24/22 A2999 RMK AO2 SLP152 T02390222
KMEI 230358Z AUTO 00000KT 10SM CLR 24/22 A3000 RMK AO2 SLP156 T02390222
KMEI 230258Z 23003KT 10SM FEW090 24/23 A3001 RMK AO2 SLP160 60002 T02440228 51010
KMEI 230158Z 00000KT 10SM BKN100 24/22 A3001 RMK AO2 RAE37 SLP158 P0001 T02440222
KMEI 230058Z 23008KT 10SM -RA FEW050 BKN070 OVC100 24/22 A3000 RMK AO2 RAB42 SLP154 P0001 T02440217
KMEI 222358Z 21006KT 10SM FEW044 SCT050 SCT080 27/22 A2999 RMK AO2 SLP150 60001 T02670217 10333 20267 53011
KMEI 222258Z 17005KT 10SM CLR 31/22 A2996 RMK AO2 LTG DSNT SW SLP141 T03060222
KMEI 222158Z 13008KT 10SM FEW043 32/22 A2995 RMK AO2 SLP136 T03220217
KMEI 222058Z COR 14006KT 10SM SCT043 31/21 A2995 RMK AO2 RAB07E25 SLP139 P0001 60001 T03060211 56025
KMEI 221958Z 11009KT 10SM SCT043 BKN050 32/22 A2996 RMK AO2 SLP142 T03220217
KMEI 221858Z VRB04KT 10SM SCT034 33/22 A2999 RMK AO2 SLP152 T03280217
KMEI 221758Z 17003KT 10SM FEW034 31/22 A3003 RMK AO2 SLP163 T03110217 10322 20228 58007
KMEI 221658Z 18004KT 10SM FEW060 30/21 A3005 RMK AO2 SLP171 T03000211
KMEI 221558Z 17006KT 10SM SCT033 SCT041 31/21 A3005 RMK AO2 SLP172 T03060206
KMEI 221458Z 17007KT 10SM CLR 30/22 A3005 RMK AO2 SLP171 T03000217 50001
KMEI 221358Z 00000KT 10SM CLR 27/23 A3005 RMK AO2 SLP173 T02720228
KMEI 221258Z 00000KT 10SM CLR 24/22 A3005 RMK AO2 SLP173 T02440222
KMEI 221158Z 00000KT 8SM FEW060 23/21 A3005 RMK AO2 SLP170 T02280211 10244 20228 53006
KMEI 221058Z 00000KT 10SM CLR 23/21 A3004 RMK AO2 SLP166 T02330211
KMEI 220958Z AUTO 00000KT 10SM FEW060 24/22 A3003 RMK AO2 SLP163 T02390217
KMEI 220858Z AUTO 31003KT 10SM FEW046 FEW055 BKN070 23/22 A3003 RMK AO2 SLP163 T02330217 56010
KMEI 220758Z AUTO 00000KT 10SM SCT050 24/22 A3004 RMK AO2 SLP166 T02390217
KMEI 220658Z AUTO 00000KT 10SM CLR 24/22 A3004 RMK AO2 SLP168 T02390217
KMEI 220558Z AUTO 00000KT 10SM CLR 24/22 A3006 RMK AO2 SLP173 T02390222 10306 20239 403390222 58004
KMEI 220458Z AUTO 25003KT 10SM CLR 24/22 A3007 RMK AO2 SLP176 T02440222
KMEI 220358Z AUTO 17003KT 10SM CLR 25/22 A3008 RMK AO2 SLP182 T02500222
KMEI 220258Z 17003KT 10SM CLR 27/23 A3007 RMK AO2 SLP178 T02670228 53019
KMEI 220158Z 15003KT 10SM FEW045 27/23 A3005 RMK AO2 SLP173 T02720228
KMEI 220058Z 00000KT 10SM CLR 27/23 A3003 RMK AO2 SLP164 T02670233
KMEI 212358Z 00000KT 10SM CLR 31/22 A3001 RMK AO2 SLP160 T03060217 10339 20306 53007
KMEI 212258Z 11006KT 10SM CLR 32/22 A3000 RMK AO2 SLP152 T03220217
KMEI 212158Z 15006KT 10SM CLR 33/22 A3000 RMK AO2 SLP153 T03330217
KMEI 212058Z 11008KT 10SM CLR 33/22 A2999 RMK AO2 SLP151 T03330217 56026
KMEI 211958Z VRB03KT 10SM CLR 33/22 A3001 RMK AO2 SLP157 T03330217
KMEI 211858Z 06007KT 10SM FEW044 33/23 A3004 RMK AO2 SLP169 T03330228
KMEI 211758Z 02004KT 10SM SCT050 33/22 A3007 RMK AO2 SLP177 60000 T03280217 10333 20222 58013
KMEI 211658Z VRB04KT 10SM BKN050 32/22 A3009 RMK AO2 RAE40 SLP183 P0000 T03170217
KMEI 211558Z 27005KT 10SM -RA SCT027 BKN070 BKN080 28/23 A3011 RMK AO2 RAB46 SLP191 P0000 T02780228
KMEI 211458Z 14003KT 10SM CLR 31/24 A3011 RMK AO2 SLP191 T03060239 50006
KMEI 211358Z 00000KT 10SM CLR 27/23 A3011 RMK AO2 SLP191 T02720233
KMEI 211258Z 00000KT 9SM CLR 25/22 A3010 RMK AO2 SLP190 T02500222
KMEI 211158Z 00000KT 5SM BR CLR 23/21 A3009 RMK AO2 SLP186 T02280206 10244 20222 51011
KMEI 211058Z 00000KT 9SM CLR 23/21 A3008 RMK AO2 SLP181 T02280211
KMEI 210958Z AUTO 00000KT 10SM R01/6000VP6000FT CLR 23/21 A3007 RMK AO2 SLP178 T02330211
KMEI 210858Z AUTO 00000KT 9SM CLR 23/21 A3006 RMK AO2 SLP173 T02330211 55001
KMEI 210758Z AUTO 00000KT 10SM CLR 24/22 A3005 RMK AO2 SLP172 T02390217
KMEI 210658Z AUTO 00000KT 10SM CLR 24/22 A3005 RMK AO2 SLP172 T02440222
KMEI 210558Z AUTO 00000KT 10SM CLR 24/22 A3006 RMK AO2 SLP174 T02440222 10306 20244 403440217 50010
KMEI 232341Z 2400/2424 12005KT P6SM SKC 
     FM240300 16005KT P6SM SCT035 
     FM240900 16005KT 4SM BR FEW005 SCT015 
     FM241500 16005KT 5SM SHRA BR SCT015 BKN025